WetterOnline ( http://www.wetteronline.de )

Wetter aktuell Ahaus

Aktuelles Wetter: Ahaus (46m)

6-stündlich | Neueste Meldungen
Ortszeit Temperatur Wetter
Fr, 21.09. 14:00 15.9° C bewölkt
Fr, 21.09. 8:00 20.7° C bedeckt
Fr, 21.09. 2:00 20.5° C bedeckt
Do, 20.09. 20:00 22.1° C wolkig
Do, 20.09. 14:00 24.2° C bewölkt
Do, 20.09. 8:00 16.7° C bedeckt
Do, 20.09. 2:00 18.7° C wolkig
Mi, 19.09. 20:00 22.3° C wolkig
Ortszeit Temperatur Wetter
Fr, 21.09. 15:00 15.8° C bedeckt
Fr, 21.09. 14:50 15.8° C bedeckt
Fr, 21.09. 14:40 15.9° C bedeckt
Fr, 21.09. 14:30 15.9° C wolkig
Fr, 21.09. 14:20 15.9° C wolkig
Fr, 21.09. 14:10 15.9° C bewölkt
Fr, 21.09. 14:00 15.9° C bewölkt
Fr, 21.09. 13:30 16.3° C bewölkt
Fr, 21.09. 13:00 17.0° C wolkig
Fr, 21.09. 12:30 16.0° C bewölkt
Fr, 21.09. 12:00 15.4° C leichter Regen
Ortszeit Relative Feuchte Sichtweite
Fr, 21.09. 14:00 63% 45 km
Fr, 21.09. 8:00 54% 40 km
Fr, 21.09. 2:00 55% 40 km
Do, 20.09. 20:00 52% 45 km
Do, 20.09. 14:00 48% 26 km
Do, 20.09. 8:00 75% 26 km
Do, 20.09. 2:00 68% 30 km
Mi, 19.09. 20:00 51% 30 km
Ortszeit Relative Feuchte Sichtweite
Fr, 21.09. 15:00 54% 40 km
Fr, 21.09. 14:50 54% -
Fr, 21.09. 14:40 55% -
Fr, 21.09. 14:30 54% 40 km
Fr, 21.09. 14:20 54% -
Fr, 21.09. 14:10 54% -
Fr, 21.09. 14:00 63% 45 km
Fr, 21.09. 13:30 65% 35 km
Fr, 21.09. 13:00 69% 35 km
Fr, 21.09. 12:30 81% 25 km
Fr, 21.09. 12:00 84% 15 km
Ortszeit Niederschlagsmenge Niederschlagsart
Fr, 21.09. 14:00 3 l/m2 in 6 Std. Regen
Fr, 21.09. 8:00 0.0 l/m2 in 12 Std. -
Fr, 21.09. 2:00 0.0 l/m2 in 6 Std. -
Do, 20.09. 20:00 0.0 l/m2 in 12 Std. -
Do, 20.09. 14:00 0.0 l/m2 in 6 Std. -
Do, 20.09. 8:00 0.0 l/m2 in 12 Std. -
Do, 20.09. 2:00 0.0 l/m2 in 6 Std. -
Mi, 19.09. 20:00 0.0 l/m2 in 12 Std. -
Ortszeit Niederschlagsmenge Niederschlagsart
Fr, 21.09. 15:00 0.0 l/m2 in 1 Std. -
Fr, 21.09. 14:50 keine Meldung -
Fr, 21.09. 14:40 keine Meldung -
Fr, 21.09. 14:30 0.0 l/m2 in 1 Std. -
Fr, 21.09. 14:20 keine Meldung -
Fr, 21.09. 14:10 keine Meldung -
Fr, 21.09. 14:00 0.0 l/m2 in 1 Std. Regen
Fr, 21.09. 13:30 0.0 l/m2 in 1 Std. -
Fr, 21.09. 13:00 0.1 l/m2 in 1 Std. Regen
Fr, 21.09. 12:30 0.1 l/m2 in 1 Std. Schneeregen
Fr, 21.09. 12:00 0.1 l/m2 in 1 Std. Regen
Ortszeit Stärke Spitze Richtung
km/h Bft. km/h Grad Sektor
Fr, 21.09. 14:00 31 5 59 280° W
Fr, 21.09. 8:00 31 5 52 210° SW
Fr, 21.09. 2:00 17 3 30 180° S
Do, 20.09. 20:00 7 2 43 190° S
Do, 20.09. 14:00 22 4 50 220° SW
Do, 20.09. 8:00 9 2 20 190° S
Do, 20.09. 2:00 11 2 30 210° SW
Mi, 19.09. 20:00 9 2 50 260° W
Ortszeit Stärke Spitze Richtung
km/h Bft. km/h Grad Sektor
Fr, 21.09. 15:00 18 3 47 260° W
Fr, 21.09. 14:50 18 3 - 260° W
Fr, 21.09. 14:40 20 4 - 270° W
Fr, 21.09. 14:30 29 5 47 270° W
Fr, 21.09. 14:20 29 5 - 270° W
Fr, 21.09. 14:10 25 4 - 270° W
Fr, 21.09. 14:00 31 5 48 280° W
Fr, 21.09. 13:30 18 3 47 250° W
Fr, 21.09. 13:00 18 3 43 250° W
Fr, 21.09. 12:30 18 3 36 240° SW
Fr, 21.09. 12:00 18 3 36 240° SW
Ortszeit Untergrenze Bedeckung Gattung
total tief tief mittel hoch
Fr, 21.09. 14:00 1020 m 8/8 7/8 - - -
Fr, 21.09. 8:00 4500 m 8/8 8/8 - - -
Fr, 21.09. 2:00 6000 m 8/8 8/8 - - -
Do, 20.09. 20:00 9000 m 8/8 0/8 - - -
Do, 20.09. 14:00 1260 m 7/8 - - - -
Do, 20.09. 8:00 1800 m 8/8 8/8 - - -
Do, 20.09. 2:00 8100 m 8/8 0/8 - - -
Mi, 19.09. 20:00 7500 m 7/8 0/8 - - -
Ortszeit Bedeckungsgrad in Achtel und Wolkenuntergrenze
Fr, 21.09. 15:00 8(5700m)
Fr, 21.09. 14:50 8(5700m)
Fr, 21.09. 14:40 7(5400m) 8(6300m)
Fr, 21.09. 14:30 1(1200m) 8(5400m) 8(5400m)
Fr, 21.09. 14:20 1(1200m) 2(1800m) 8(5400m)
Fr, 21.09. 14:10 2(1080m) 5(1800m) 8(5400m)
Fr, 21.09. 14:00 2(1020m) 7(2100m) 8(6000m)
Fr, 21.09. 13:30 5(1020m) 7(1500m) 8(6900m)
Fr, 21.09. 13:00 3(990m) 5(5700m) 7(6600m)
Fr, 21.09. 12:30 2(840m) 5(2400m) 8(3000m)
Fr, 21.09. 12:00 1(720m) 7(1800m) 8(2400m)
Ortszeit Luftdruck NN (hPa) Tendenz (hPa in 3 Std.)
Fr, 21.09. 14:00 1007 + 2,7
Fr, 21.09. 8:00 1002 - 2,7
Fr, 21.09. 2:00 1008 - 2,6
Do, 20.09. 20:00 1012 - 2,0
Do, 20.09. 14:00 1016 - 0,9
Do, 20.09. 8:00 1017 + 0,1
Do, 20.09. 2:00 1017 - 0,3
Mi, 19.09. 20:00 1016 + 1,3
Ortszeit Luftdruck NN (hPa) Tendenz (hPa in 3 Std.)
Fr, 21.09. 15:00 1007 + 2,5
Fr, 21.09. 14:50 1007 keine Meldung
Fr, 21.09. 14:40 1007 keine Meldung
Fr, 21.09. 14:30 1007 + 2,6
Fr, 21.09. 14:20 1007 keine Meldung
Fr, 21.09. 14:10 1007 keine Meldung
Fr, 21.09. 14:00 1007 + 2,7
Fr, 21.09. 13:30 1006 + 3,8
Fr, 21.09. 13:00 1005 + 3,1
Fr, 21.09. 12:30 1005 + 3,0
Fr, 21.09. 12:00 1005 + 3,1
Ortszeit Schneehöhe (cm)
Fr, 21.09. 14:00 -
Fr, 21.09. 8:00 -
Fr, 21.09. 2:00 -
Do, 20.09. 20:00 -
Do, 20.09. 14:00 -
Do, 20.09. 8:00 -
Do, 20.09. 2:00 -
Mi, 19.09. 20:00 -
Ortszeit Schneehöhe (cm)
Fr, 21.09. 15:00 -
Fr, 21.09. 14:50 -
Fr, 21.09. 14:40 -
Fr, 21.09. 14:30 -
Fr, 21.09. 14:20 -
Fr, 21.09. 14:10 -
Fr, 21.09. 14:00 -
Fr, 21.09. 13:30 -
Fr, 21.09. 13:00 -
Fr, 21.09. 12:30 -
Fr, 21.09. 12:00 -
Link zu dieser Seite / Seite empfehlen

Das Wetter in ...